Time;durP1;ratioP1;P1;durP2;ratioP2;P2;SDS_P1;SDS_P2;PMS_P1;PMS_P2;Temp;Humidity;BMP_temperature;BMP_pressure;BME280_temperature;BME280_humidity;BME280_pressure;Samples;Min_cycle;Max_cycle;Signal;HPM_P1;HPM_P2
2021/04/14 00:00:27;;;;;;;6.07;2.70;;;5.30;1.00;;;;;;5083610;28;20243;-60
2021/04/14 00:02:53;;;;;;;4.80;2.20;;;5.30;1.00;;;;;;5076608;28;20198;-60
2021/04/14 00:05:22;;;;;;;5.40;2.60;;;5.30;1.00;;;;;;5086491;28;20466;-59
2021/04/14 00:07:48;;;;;;;3.80;2.43;;;5.30;1.00;;;;;;5084243;28;20887;-60
2021/04/14 00:10:20;;;;;;;4.67;3.10;;;5.20;1.00;;;;;;5075063;28;20574;-61
2021/04/14 00:12:46;;;;;;;4.37;2.57;;;5.20;1.00;;;;;;5073363;28;20449;-60
2021/04/14 00:15:18;;;;;;;6.20;2.80;;;5.10;1.00;;;;;;5088074;28;20461;-61
2021/04/14 00:17:44;;;;;;;3.50;2.80;;;5.30;1.00;;;;;;5069500;28;20225;-59
2021/04/14 00:20:11;;;;;;;4.00;2.70;;;5.30;1.00;;;;;;5079820;28;20926;-59
2021/04/14 00:22:38;;;;;;;3.47;2.50;;;5.20;1.00;;;;;;5082104;28;20645;-61
2021/04/14 00:25:04;;;;;;;4.20;2.70;;;5.20;1.00;;;;;;5085632;28;20440;-60
2021/04/14 00:27:30;;;;;;;4.83;2.77;;;5.20;1.00;;;;;;5077428;28;20525;-61
2021/04/14 00:29:55;;;;;;;8.30;2.40;;;5.30;1.00;;;;;;5080557;28;20833;-60
2021/04/14 00:32:21;;;;;;;3.93;2.53;;;5.10;1.00;;;;;;5078322;28;20195;-60
2021/04/14 00:34:46;;;;;;;5.53;2.40;;;5.10;1.00;;;;;;5081628;28;20289;-59
2021/04/14 00:37:12;;;;;;;3.33;2.90;;;5.00;1.00;;;;;;5083497;28;20210;-60
2021/04/14 00:39:37;;;;;;;3.20;2.73;;;4.90;1.00;;;;;;5078604;28;20213;-60
2021/04/14 00:42:04;;;;;;;3.13;2.60;;;4.90;1.00;;;;;;5081416;28;20215;-62
2021/04/14 00:44:31;;;;;;;5.67;2.53;;;4.90;1.00;;;;;;5083714;28;20171;-62
2021/04/14 00:46:56;;;;;;;5.60;2.93;;;4.90;1.00;;;;;;5089064;28;20529;-59
2021/04/14 00:49:22;;;;;;;2.67;2.43;;;4.90;1.00;;;;;;5072385;28;20537;-59
2021/04/14 00:51:48;;;;;;;5.47;3.17;;;4.80;1.00;;;;;;5075489;28;20249;-60
2021/04/14 00:54:13;;;;;;;4.50;3.67;;;4.70;1.00;;;;;;5079116;28;20211;-60
2021/04/14 00:56:39;;;;;;;7.03;3.10;;;4.70;1.00;;;;;;5072568;28;20274;-60
2021/04/14 00:59:05;;;;;;;7.90;3.73;;;4.60;1.00;;;;;;5069084;28;20930;-60
2021/04/14 01:01:30;;;;;;;6.17;2.97;;;4.70;1.00;;;;;;5083269;28;20190;-58
2021/04/14 01:03:56;;;;;;;3.40;3.00;;;4.70;1.00;;;;;;5082109;28;20497;-58
2021/04/14 01:06:25;;;;;;;3.53;2.80;;;4.70;1.00;;;;;;5073734;28;20194;-60
2021/04/14 01:08:51;;;;;;;3.60;3.30;;;4.80;1.00;;;;;;5076817;28;20266;-60
2021/04/14 01:11:17;;;;;;;5.53;2.67;;;4.70;1.00;;;;;;5082668;28;20437;-59
2021/04/14 01:13:44;;;;;;;2.93;2.73;;;4.70;1.00;;;;;;5077471;28;20445;-59
2021/04/14 01:16:10;;;;;;;5.20;3.23;;;4.70;1.00;;;;;;5079360;28;20465;-61
2021/04/14 01:18:37;;;;;;;4.77;2.93;;;4.70;1.00;;;;;;5073265;28;20445;-60
2021/04/14 01:21:13;;;;;;;2.67;2.47;;;4.70;1.00;;;;;;5073241;28;20441;-60
2021/04/14 01:23:39;;;;;;;6.07;2.40;;;4.80;1.00;;;;;;5070565;28;20455;-61
2021/04/14 01:26:06;;;;;;;4.40;3.33;;;4.40;1.00;;;;;;5075790;28;20504;-60
2021/04/14 01:28:37;;;;;;;3.70;3.40;;;4.60;1.00;;;;;;5083472;28;20561;-60
2021/04/14 01:31:08;;;;;;;6.10;3.20;;;4.50;1.00;;;;;;5080156;28;20532;-60
2021/04/14 01:33:34;;;;;;;4.53;3.40;;;4.60;1.00;;;;;;5077856;28;20445;-59
2021/04/14 01:36:02;;;;;;;5.63;2.83;;;4.60;1.00;;;;;;5077688;28;20590;-60
2021/04/14 01:38:29;;;;;;;6.93;2.70;;;4.50;1.00;;;;;;5073353;28;20434;-60
2021/04/14 01:40:55;;;;;;;6.60;3.03;;;;;;;;;;5072831;28;20637;-59
2021/04/14 01:43:21;;;;;;;7.40;3.60;;;4.60;1.00;;;;;;5069860;28;20941;-59
2021/04/14 01:45:48;;;;;;;3.50;2.83;;;4.60;1.00;;;;;;5073367;28;20487;-59
2021/04/14 01:48:15;;;;;;;5.47;3.10;;;4.50;1.00;;;;;;5073523;28;20292;-59
2021/04/14 01:50:41;;;;;;;3.13;2.70;;;4.50;1.00;;;;;;5074840;28;20445;-59
2021/04/14 01:53:10;;;;;;;8.00;3.70;;;4.50;1.00;;;;;;5079052;28;20440;-60
2021/04/14 01:55:37;;;;;;;6.17;3.70;;;4.50;1.00;;;;;;5080514;28;20464;-60
2021/04/14 01:58:03;;;;;;;6.77;3.70;;;4.60;1.00;;;;;;5065535;28;20484;-59
2021/04/14 02:00:36;;;;;;;4.13;3.00;;;4.50;1.00;;;;;;5073608;28;21264;-61
2021/04/14 02:03:02;;;;;;;5.77;2.77;;;4.40;1.00;;;;;;5074596;28;20464;-60
2021/04/14 02:05:30;;;;;;;4.87;3.50;;;4.40;1.00;;;;;;5081367;28;20436;-59
2021/04/14 02:07:56;;;;;;;4.37;3.20;;;4.40;1.00;;;;;;5077494;28;20429;-59
2021/04/14 02:10:24;;;;;;;7.03;3.80;;;4.20;1.00;;;;;;5073598;28;20797;-59
2021/04/14 02:12:50;;;;;;;4.57;3.40;;;4.20;1.00;;;;;;5081004;28;20531;-60
2021/04/14 02:15:20;;;;;;;4.83;2.83;;;4.30;1.00;;;;;;5073884;28;20502;-59
2021/04/14 02:17:46;;;;;;;6.83;3.50;;;4.30;1.00;;;;;;5055921;28;20966;-60
2021/04/14 02:20:12;;;;;;;3.13;2.83;;;4.30;1.00;;;;;;5080472;28;20437;-59
2021/04/14 02:22:39;;;;;;;6.73;3.17;;;4.30;1.00;;;;;;5078531;28;20194;-59
2021/04/14 02:25:07;;;;;;;3.20;2.70;;;4.20;1.00;;;;;;5077760;28;20440;-59
2021/04/14 02:27:33;;;;;;;7.80;3.80;;;4.30;1.00;;;;;;5069026;28;20489;-59
2021/04/14 02:30:00;;;;;;;6.60;3.30;;;4.30;1.00;;;;;;5077938;28;20960;-60
2021/04/14 02:32:26;;;;;;;4.60;3.50;;;4.20;1.00;;;;;;5067515;28;20187;-60
2021/04/14 02:34:51;;;;;;;4.80;3.40;;;4.20;1.00;;;;;;5071347;28;20457;-59
2021/04/14 02:37:17;;;;;;;3.67;3.37;;;4.20;1.00;;;;;;5075774;28;20429;-59
2021/04/14 02:39:43;;;;;;;5.37;3.57;;;4.20;1.00;;;;;;5074208;28;20183;-59
2021/04/14 02:42:08;;;;;;;5.07;3.67;;;4.10;1.00;;;;;;5078139;28;20436;-60
2021/04/14 02:44:34;;;;;;;13.60;3.10;;;4.10;1.00;;;;;;5084204;28;20183;-59
2021/04/14 02:47:00;;;;;;;3.60;3.30;;;4.20;1.00;;;;;;5079688;28;20453;-59
2021/04/14 02:49:25;;;;;;;6.30;3.73;;;4.10;1.00;;;;;;5083664;28;20222;-59
2021/04/14 02:51:51;;;;;;;5.90;3.37;;;4.20;1.00;;;;;;5083937;28;20617;-61
2021/04/14 02:54:18;;;;;;;4.00;2.97;;;4.20;1.00;;;;;;5086950;28;20714;-60
2021/04/14 02:56:44;;;;;;;5.20;3.40;;;4.20;1.00;;;;;;5078764;28;20510;-60
2021/04/14 02:59:10;;;;;;;3.90;3.43;;;4.10;1.00;;;;;;5078163;28;20445;-60
2021/04/14 03:01:35;;;;;;;5.17;3.40;;;4.10;1.00;;;;;;5079498;28;20780;-60
2021/04/14 03:04:01;;;;;;;3.90;3.50;;;4.10;1.00;;;;;;5083039;28;20649;-59
2021/04/14 03:06:27;;;;;;;3.60;2.80;;;4.10;1.00;;;;;;5086053;28;20171;-62
2021/04/14 03:08:52;;;;;;;4.70;3.50;;;4.10;1.00;;;;;;5078690;28;20601;-60
2021/04/14 03:11:18;;;;;;;8.60;4.10;;;4.00;1.00;;;;;;5092536;28;20273;-60
2021/04/14 03:13:43;;;;;;;9.97;3.90;;;4.00;1.00;;;;;;5070836;28;20222;-60
2021/04/14 03:16:09;;;;;;;4.80;3.40;;;4.10;1.00;;;;;;5076194;28;20761;-60
2021/04/14 03:18:34;;;;;;;5.13;3.83;;;4.10;1.00;;;;;;5075554;28;20262;-59
2021/04/14 03:21:00;;;;;;;5.17;3.20;;;4.00;1.00;;;;;;5083237;28;20249;-60
2021/04/14 03:23:26;;;;;;;3.90;3.10;;;4.00;1.00;;;;;;5080279;28;20228;-60
2021/04/14 03:25:51;;;;;;;10.07;3.23;;;3.90;1.00;;;;;;5080341;28;20183;-60
2021/04/14 03:28:17;;;;;;;6.50;3.53;;;4.00;1.00;;;;;;5085441;28;20217;-59
2021/04/14 03:30:43;;;;;;;10.80;4.30;;;3.90;1.00;;;;;;5080034;28;20257;-60
2021/04/14 03:33:10;;;;;;;4.87;3.47;;;4.00;1.00;;;;;;5075434;28;20189;-58
2021/04/14 03:35:36;;;;;;;5.57;3.80;;;3.90;1.00;;;;;;5079891;28;20195;-61
2021/04/14 03:38:02;;;;;;;4.43;3.10;;;3.90;1.00;;;;;;5074730;28;21040;-60
2021/04/14 03:40:28;;;;;;;10.60;3.83;;;3.90;1.00;;;;;;5074807;28;20464;-61
2021/04/14 03:42:55;;;;;;;9.33;4.23;;;4.00;1.00;;;;;;5076890;28;20658;-60
2021/04/14 03:45:29;;;;;;;4.60;4.10;;;3.90;1.00;;;;;;5078364;28;20476;-60
2021/04/14 03:47:54;;;;;;;3.70;3.23;;;3.80;1.00;;;;;;5076752;28;20449;-59
2021/04/14 03:50:21;;;;;;;9.90;4.10;;;3.80;1.00;;;;;;5080774;28;21020;-59
2021/04/14 03:52:48;;;;;;;5.80;4.00;;;3.70;1.00;;;;;;5086359;28;20205;-60
2021/04/14 03:55:15;;;;;;;6.27;4.13;;;3.80;1.00;;;;;;5079349;28;20474;-59
2021/04/14 03:57:41;;;;;;;6.80;3.90;;;3.90;1.00;;;;;;5086769;28;21044;-58
2021/04/14 04:00:08;;;;;;;9.20;4.00;;;3.80;1.00;;;;;;5078556;28;20531;-60
2021/04/14 04:02:33;;;;;;;8.27;3.80;;;3.70;1.00;;;;;;5075537;28;20175;-59
2021/04/14 04:04:59;;;;;;;6.57;4.73;;;3.70;1.00;;;;;;5082835;28;20448;-59
2021/04/14 04:07:24;;;;;;;8.23;4.07;;;3.80;1.00;;;;;;5082578;28;20193;-62
2021/04/14 04:09:50;;;;;;;7.87;4.27;;;3.60;1.00;;;;;;5084227;28;20198;-61
2021/04/14 04:12:15;;;;;;;4.80;3.80;;;3.70;1.00;;;;;;5071750;28;20219;-61
2021/04/14 04:14:48;;;;;;;5.77;4.03;;;3.60;1.00;;;;;;5070010;28;20211;-61
2021/04/14 04:17:15;;;;;;;6.60;4.37;;;3.70;1.00;;;;;;5071889;28;20632;-61
2021/04/14 04:19:41;;;;;;;5.90;4.00;;;3.60;1.00;;;;;;5071436;28;20477;-61
2021/04/14 04:22:07;;;;;;;5.93;3.77;;;3.70;1.00;;;;;;5071958;28;20469;-59
2021/04/14 04:24:33;;;;;;;4.33;3.63;;;3.70;1.00;;;;;;5073427;28;20586;-59
2021/04/14 04:26:59;;;;;;;8.20;4.10;;;;;;;;;;5077045;28;20562;-60
2021/04/14 04:29:25;;;;;;;6.40;3.70;;;3.70;1.00;;;;;;5084403;28;20194;-61
2021/04/14 04:31:50;;;;;;;6.17;3.73;;;3.70;1.00;;;;;;5082798;28;20426;-60
2021/04/14 04:34:16;;;;;;;6.10;3.50;;;3.70;1.00;;;;;;5090881;28;20186;-60
2021/04/14 04:36:41;;;;;;;8.23;4.10;;;3.80;1.00;;;;;;5078696;28;20259;-61
2021/04/14 04:39:07;;;;;;;10.77;4.23;;;3.60;1.00;;;;;;5079464;28;20186;-60
2021/04/14 04:41:33;;;;;;;8.73;5.43;;;3.60;1.00;;;;;;5075715;28;20270;-61
2021/04/14 04:43:59;;;;;;;9.00;4.67;;;3.70;1.00;;;;;;5086153;28;20183;-60
2021/04/14 04:46:25;;;;;;;6.40;4.27;;;3.60;1.00;;;;;;5076523;28;20540;-60
2021/04/14 04:48:50;;;;;;;8.00;3.77;;;3.80;1.00;;;;;;5081652;28;20193;-61
2021/04/14 04:51:16;;;;;;;9.10;4.60;;;3.70;1.00;;;;;;5081074;28;20564;-60
2021/04/14 04:53:41;;;;;;;7.40;3.97;;;3.80;1.00;;;;;;5075037;28;20190;-60
2021/04/14 04:56:07;;;;;;;8.30;3.93;;;3.80;1.00;;;;;;5082702;28;20214;-61
2021/04/14 04:58:32;;;;;;;9.23;3.83;;;3.70;1.00;;;;;;5072516;28;20186;-57
2021/04/14 05:00:58;;;;;;;7.27;4.73;;;3.70;1.00;;;;;;5076439;28;20183;-56
2021/04/14 05:03:28;;;;;;;10.27;4.50;;;3.80;1.00;;;;;;5077510;28;20178;-55
2021/04/14 05:05:56;;;;;;;11.90;4.70;;;3.80;1.00;;;;;;5078138;28;20190;-55
2021/04/14 05:08:22;;;;;;;5.60;3.87;;;3.90;1.00;;;;;;5073623;28;20894;-56
2021/04/14 05:10:48;;;;;;;6.80;5.00;;;3.80;1.00;;;;;;5070122;28;20536;-56
2021/04/14 05:13:14;;;;;;;10.73;4.87;;;3.90;1.00;;;;;;5071205;28;20191;-56
2021/04/14 05:15:40;;;;;;;13.13;4.67;;;4.00;1.00;;;;;;5087873;28;20570;-55
2021/04/14 05:18:07;;;;;;;5.53;4.23;;;4.10;1.00;;;;;;5071963;28;20191;-57
2021/04/14 05:20:33;;;;;;;5.67;4.03;;;4.10;1.00;;;;;;5067849;28;20471;-55
2021/04/14 05:22:59;;;;;;;11.00;5.77;;;4.10;1.00;;;;;;5070247;28;20437;-55
2021/04/14 05:25:27;;;;;;;9.37;4.50;;;4.10;1.00;;;;;;5070589;28;20433;-57
2021/04/14 05:27:56;;;;;;;8.20;5.47;;;4.00;1.00;;;;;;5067791;28;20538;-56
2021/04/14 05:30:22;;;;;;;11.20;4.80;;;4.00;1.00;;;;;;5070201;28;20445;-56
2021/04/14 05:32:49;;;;;;;16.90;5.13;;;4.00;1.00;;;;;;5079450;28;20443;-57
2021/04/14 05:35:15;;;;;;;7.63;4.03;;;3.90;1.00;;;;;;5070114;28;20465;-55
2021/04/14 05:37:40;;;;;;;5.07;4.47;;;4.00;1.00;;;;;;5069998;28;20455;-55
2021/04/14 05:40:06;;;;;;;7.23;4.60;;;4.00;1.00;;;;;;5069238;28;20186;-56
2021/04/14 05:42:46;;;;;;;6.23;4.80;;;4.10;1.00;;;;;;5076847;28;20194;-56
2021/04/14 05:45:16;;;;;;;7.80;4.40;;;4.10;1.00;;;;;;5082367;28;20434;-55
2021/04/14 05:47:43;;;;;;;6.53;5.40;;;4.10;1.00;;;;;;5069480;28;20441;-55
2021/04/14 05:50:13;;;;;;;10.03;5.20;;;4.60;1.00;;;;;;5068625;28;20611;-55
2021/04/14 05:52:39;;;;;;;10.20;5.70;;;3.90;1.00;;;;;;5070030;28;20437;-55
2021/04/14 05:55:05;;;;;;;7.23;4.43;;;3.90;1.00;;;;;;5071234;28;20468;-56
2021/04/14 05:57:31;;;;;;;6.23;4.60;;;3.90;1.00;;;;;;5069908;28;20179;-56
2021/04/14 05:59:56;;;;;;;9.93;5.87;;;3.90;1.00;;;;;;5069135;28;20437;-56
2021/04/14 06:02:22;;;;;;;11.63;5.83;;;;;;;;;;5069756;28;20174;-55
2021/04/14 06:04:51;;;;;;;7.23;4.80;;;4.20;1.00;;;;;;5069414;28;20265;-56
2021/04/14 06:07:17;;;;;;;8.10;4.43;;;4.30;1.00;;;;;;5069397;28;20473;-56
2021/04/14 06:09:42;;;;;;;7.60;4.80;;;4.40;1.00;;;;;;5069348;28;20476;-55
2021/04/14 06:12:08;;;;;;;7.63;4.27;;;4.30;1.00;;;;;;5068580;28;20673;-56
2021/04/14 06:14:34;;;;;;;9.43;4.93;;;4.20;1.00;;;;;;5068313;28;20199;-55
2021/04/14 06:17:00;;;;;;;11.33;5.10;;;4.20;1.00;;;;;;5071883;28;20430;-56
2021/04/14 06:19:25;;;;;;;6.40;4.90;;;4.40;1.00;;;;;;5074328;28;20183;-56
2021/04/14 06:21:51;;;;;;;6.13;4.80;;;4.50;1.00;;;;;;5073584;28;20614;-56
2021/04/14 06:24:16;;;;;;;7.10;4.80;;;4.30;1.00;;;;;;5073834;28;20230;-56
2021/04/14 06:26:46;;;;;;;7.93;5.30;;;4.30;1.00;;;;;;5073848;28;20246;-56
2021/04/14 06:29:13;;;;;;;14.17;5.97;;;4.30;1.00;;;;;;5073943;28;20179;-56
2021/04/14 06:31:42;;;;;;;10.03;5.50;;;4.40;1.00;;;;;;5071077;28;20480;-55
2021/04/14 06:34:20;;;;;;;8.10;5.70;;;4.50;1.00;;;;;;5073982;28;20432;-58
2021/04/14 06:36:48;;;;;;;15.13;5.93;;;4.80;1.00;;;;;;5073982;28;20492;-56
2021/04/14 06:39:15;;;;;;;8.23;6.13;;;5.00;1.00;;;;;;5073073;28;20438;-55
2021/04/14 06:42:30;;;;;;;10.43;5.23;;;5.00;1.00;;;;;;5072677;28;20445;-56
2021/04/14 06:45:09;;;;;;;15.37;5.93;;;5.20;1.00;;;;;;5073424;28;20531;-56
2021/04/14 06:47:38;;;;;;;15.93;6.73;;;5.20;1.00;;;;;;5071919;28;20528;-55
2021/04/14 06:50:21;;;;;;;9.07;5.57;;;5.20;1.00;;;;;;5072683;28;20992;-57
2021/04/14 06:53:15;;;;;;;9.90;5.80;;;5.20;1.00;;;;;;5073191;28;20437;-57
2021/04/14 06:55:59;;;;;;;13.40;7.07;;;5.10;1.00;;;;;;5061774;28;20516;-55
2021/04/14 06:58:37;;;;;;;13.63;5.43;;;5.20;1.00;;;;;;5071740;28;20998;-56
2021/04/14 07:01:06;;;;;;;10.57;6.17;;;5.40;1.00;;;;;;5072808;28;20430;-59
2021/04/14 07:03:46;;;;;;;13.37;5.27;;;5.70;1.00;;;;;;5072967;28;20440;-56
2021/04/14 07:06:15;;;;;;;9.27;5.43;;;5.80;1.00;;;;;;5073018;28;20441;-57
2021/04/14 07:08:48;;;;;;;6.97;5.30;;;5.80;1.00;;;;;;5071620;28;20719;-56
2021/04/14 07:11:19;;;;;;;13.70;4.83;;;5.70;1.00;;;;;;5070790;28;20803;-57
2021/04/14 07:13:48;;;;;;;9.00;5.07;;;5.60;1.00;;;;;;5071696;28;20452;-58
2021/04/14 07:16:28;;;;;;;16.43;6.20;;;5.80;1.00;;;;;;5073085;28;20464;-57
2021/04/14 07:19:15;;;;;;;8.80;4.83;;;5.90;1.00;;;;;;5072763;28;20437;-58
2021/04/14 07:21:57;;;;;;;11.60;5.37;;;5.90;1.00;;;;;;5075559;28;20546;-57
2021/04/14 07:24:35;;;;;;;11.20;4.30;;;5.90;1.00;;;;;;5071912;28;20863;-58
2021/04/14 07:27:22;;;;;;;11.40;4.27;;;6.00;1.00;;;;;;5071696;28;20958;-57
2021/04/14 07:30:00;;;;;;;9.00;4.97;;;6.10;1.00;;;;;;5072584;28;20444;-58
2021/04/14 07:32:58;;;;;;;10.80;4.40;;;6.00;1.00;;;;;;5071611;28;20502;-57
2021/04/14 07:36:12;;;;;;;5.90;4.60;;;5.90;1.00;;;;;;5072705;28;20492;-57
2021/04/14 07:39:15;;;;;;;4.40;3.43;;;6.20;1.00;;;;;;5057972;28;20445;-57
2021/04/14 07:42:28;;;;;;;9.73;4.50;;;6.40;1.00;;;;;;5071381;28;20440;-57
2021/04/14 07:45:33;;;;;;;7.33;4.30;;;6.80;1.00;;;;;;5010053;28;20434;-56
2021/04/14 07:48:08;;;;;;;8.33;4.40;;;6.80;1.00;;;;;;5071999;28;20445;-58
2021/04/14 07:50:42;;;;;;;11.90;4.90;;;7.20;1.00;;;;;;5071274;28;20779;-57
2021/04/14 07:53:22;;;;;;;5.93;4.20;;;7.60;1.00;;;;;;5067989;28;20776;-58
2021/04/14 07:56:04;;;;;;;10.43;4.50;;;7.60;1.00;;;;;;5070959;28;20589;-59
2021/04/14 07:58:30;;;;;;;9.87;4.73;;;7.40;1.00;;;;;;5071430;28;20438;-60
2021/04/14 08:01:09;;;;;;;6.97;4.30;;;7.00;1.00;;;;;;5071815;28;20513;-58
2021/04/14 08:03:34;;;;;;;12.07;4.83;;;6.80;1.00;;;;;;5072182;28;20437;-58
2021/04/14 08:06:26;;;;;;;9.50;4.23;;;6.90;1.00;;;;;;5071409;28;20452;-58
2021/04/14 08:08:52;;;;;;;10.07;4.13;;;7.20;1.00;;;;;;5071060;28;20179;-57
2021/04/14 08:11:33;;;;;;;11.93;4.20;;;7.10;1.00;;;;;;5069483;28;20464;-58
2021/04/14 08:14:15;;;;;;;10.07;4.23;;;7.30;1.00;;;;;;5071644;28;20468;-58
2021/04/14 08:16:46;;;;;;;9.40;4.23;;;7.60;1.00;;;;;;5070726;28;20437;-56
2021/04/14 08:19:17;;;;;;;3.20;2.50;;;7.40;1.00;;;;;;5070495;28;20491;-59
2021/04/14 08:21:57;;;;;;;4.57;3.30;;;7.30;1.00;;;;;;5071099;28;20433;-58
2021/04/14 08:24:33;;;;;;;3.13;2.40;;;7.40;1.00;;;;;;5071437;28;20434;-59
2021/04/14 08:27:01;;;;;;;9.40;3.23;;;7.50;1.00;;;;;;5070819;28;20499;-58
2021/04/14 08:29:27;;;;;;;8.13;2.93;;;7.50;1.00;;;;;;5071670;28;20426;-58
2021/04/14 08:31:54;;;;;;;10.57;3.27;;;7.70;1.00;;;;;;5071059;28;20443;-58
2021/04/14 08:34:29;;;;;;;11.40;3.07;;;8.10;1.00;;;;;;5070318;28;20577;-59
2021/04/14 08:37:04;;;;;;;9.40;2.70;;;8.60;1.00;;;;;;5069189;28;20459;-57
2021/04/14 08:39:35;;;;;;;6.70;2.60;;;9.10;1.00;;;;;;5070367;28;20445;-59
2021/04/14 08:42:19;;;;;;;8.50;2.90;;;9.00;1.00;;;;;;5068893;28;20533;-58
2021/04/14 08:44:47;;;;;;;7.80;3.20;;;8.80;1.00;;;;;;5069544;28;20513;-58
2021/04/14 08:47:25;;;;;;;5.10;2.70;;;8.60;1.00;;;;;;5070874;28;20443;-57
2021/04/14 08:50:04;;;;;;;7.37;3.07;;;8.10;1.00;;;;;;5070742;28;20445;-60
2021/04/14 08:52:31;;;;;;;6.33;2.70;;;8.20;1.00;;;;;;5071061;28;20522;-57
2021/04/14 08:54:58;;;;;;;11.00;3.03;;;8.60;1.00;;;;;;5070198;28;20459;-58
2021/04/14 08:57:24;;;;;;;7.60;2.30;;;8.50;1.00;;;;;;5082535;28;20470;-58
2021/04/14 08:59:50;;;;;;;7.80;2.40;;;8.00;1.00;;;;;;5068653;28;20536;-58
2021/04/14 09:02:18;;;;;;;9.80;2.03;;;8.00;1.00;;;;;;5069861;28;20173;-57
2021/04/14 09:04:46;;;;;;;4.20;2.10;;;8.00;1.00;;;;;;5088039;28;20889;-59
2021/04/14 09:07:16;;;;;;;7.43;2.20;;;8.30;1.00;;;;;;5083024;28;20438;-58
2021/04/14 09:09:46;;;;;;;7.50;2.23;;;8.90;1.00;;;;;;5082970;28;20454;-58
2021/04/14 09:12:12;;;;;;;7.23;2.27;;;8.20;1.00;;;;;;5076139;28;20468;-61
2021/04/14 09:14:38;;;;;;;5.47;2.23;;;8.20;1.00;;;;;;5070546;28;20458;-58
2021/04/14 09:17:10;;;;;;;11.27;2.67;;;8.10;1.00;;;;;;5069872;28;20513;-60
2021/04/14 09:19:37;;;;;;;5.37;2.17;;;8.30;1.00;;;;;;5080390;28;20426;-60
2021/04/14 09:22:18;;;;;;;14.63;3.10;;;8.40;1.00;;;;;;5072146;28;20426;-59
2021/04/14 09:24:48;;;;;;;2.43;1.40;;;8.80;1.00;;;;;;5069358;28;20943;-59
2021/04/14 09:27:35;;;;;;;3.43;2.03;;;9.00;1.00;;;;;;5069598;28;20481;-60
2021/04/14 09:30:10;;;;;;;4.63;1.83;;;9.40;1.00;;;;;;5069536;28;21033;-59
2021/04/14 09:33:04;;;;;;;9.40;2.23;;;9.70;1.00;;;;;;5067764;28;20739;-59
2021/04/14 09:35:30;;;;;;;8.20;2.20;;;9.00;1.00;;;;;;5068381;28;20469;-59
2021/04/14 09:38:29;;;;;;;9.47;2.50;;;8.50;1.00;;;;;;5068813;28;20498;-58
2021/04/14 09:41:30;;;;;;;6.83;1.87;;;8.40;1.00;;;;;;5070317;28;20310;-57
2021/04/14 09:44:14;;;;;;;8.77;1.70;;;8.60;1.00;;;;;;5069374;28;20534;-58
2021/04/14 09:46:57;;;;;;;2.27;1.67;;;8.80;1.00;;;;;;5068837;28;20447;-58
2021/04/14 09:49:38;;;;;;;4.90;2.37;;;9.10;1.00;;;;;;5061963;28;21038;-59
2021/04/14 09:52:20;;;;;;;9.70;2.13;;;9.60;1.00;;;;;;5066108;28;20441;-59
2021/04/14 09:54:49;;;;;;;9.30;2.07;;;9.50;1.00;;;;;;5068122;28;20458;-59
2021/04/14 09:57:19;;;;;;;18.70;2.60;;;9.00;1.00;;;;;;5064080;28;20455;-57
2021/04/14 09:59:45;;;;;;;5.53;2.00;;;8.20;1.00;;;;;;5069989;28;21043;-59
2021/04/14 10:02:17;;;;;;;3.33;1.80;;;7.90;1.00;;;;;;5070292;28;20429;-58
2021/04/14 10:04:43;;;;;;;10.40;2.33;;;8.00;1.00;;;;;;5069609;28;20233;-60
2021/04/14 10:07:38;;;;;;;3.90;1.77;;;8.30;1.00;;;;;;5066197;28;20480;-59
2021/04/14 10:10:12;;;;;;;3.47;2.13;;;9.00;1.00;;;;;;5067289;28;20928;-59
2021/04/14 10:12:38;;;;;;;4.10;1.63;;;9.30;1.00;;;;;;5070373;28;20447;-60
2021/04/14 10:15:06;;;;;;;4.10;1.87;;;9.60;1.00;;;;;;5068876;28;20588;-60
2021/04/14 10:17:33;;;;;;;4.70;1.90;;;9.60;1.00;;;;;;5079894;28;20458;-58
2021/04/14 10:20:10;;;;;;;4.23;1.50;;;9.60;1.00;;;;;;5069905;28;20473;-58
2021/04/14 10:22:46;;;;;;;4.10;1.50;;;9.70;1.00;;;;;;5067390;28;20483;-61
2021/04/14 10:25:20;;;;;;;4.70;2.87;;;9.70;1.00;;;;;;5066034;28;20442;-60
2021/04/14 10:27:50;;;;;;;3.63;2.30;;;9.90;1.00;;;;;;5071562;28;20468;-59
2021/04/14 10:30:22;;;;;;;2.97;1.60;;;10.10;1.00;;;;;;5069850;28;20439;-59
2021/04/14 10:32:49;;;;;;;3.80;1.50;;;10.20;1.00;;;;;;5069702;28;20474;-58
2021/04/14 10:35:20;;;;;;;4.17;2.53;;;10.20;1.00;;;;;;5068350;28;20484;-59
2021/04/14 10:37:53;;;;;;;2.47;1.63;;;10.40;1.00;;;;;;5069047;28;20449;-60
2021/04/14 10:40:21;;;;;;;5.20;2.90;;;10.80;1.00;;;;;;5068167;28;20479;-59
2021/04/14 10:42:49;;;;;;;7.00;1.80;;;10.80;1.00;;;;;;5069336;28;20439;-59
2021/04/14 10:45:18;;;;;;;2.10;1.50;;;10.40;1.00;;;;;;5067120;28;20439;-59
2021/04/14 10:47:44;;;;;;;4.20;1.53;;;10.10;1.00;;;;;;5069608;28;20591;-59
2021/04/14 10:50:21;;;;;;;4.00;1.63;;;9.60;1.00;;;;;;5068554;28;20921;-59
2021/04/14 10:52:54;;;;;;;3.77;1.57;;;9.50;1.00;;;;;;5066978;28;20854;-59
2021/04/14 10:55:23;;;;;;;4.00;1.47;;;9.60;1.00;;;;;;5067920;28;20505;-59
2021/04/14 10:57:58;;;;;;;4.90;3.27;;;9.80;1.00;;;;;;5069015;28;20535;-60
2021/04/14 11:00:30;;;;;;;4.93;3.13;;;9.80;1.00;;;;;;5061180;28;21062;-59
2021/04/14 11:03:04;;;;;;;4.67;1.80;;;10.00;1.00;;;;;;5068824;28;20450;-60
2021/04/14 11:05:31;;;;;;;5.47;1.90;;;10.20;1.00;;;;;;5070221;28;20455;-60
2021/04/14 11:07:57;;;;;;;6.90;1.60;;;10.10;1.00;;;;;;5078922;28;20429;-60
2021/04/14 11:10:33;;;;;;;2.13;1.60;;;10.00;1.00;;;;;;5076476;28;20469;-60
2021/04/14 11:13:00;;;;;;;3.33;1.20;;;10.00;1.00;;;;;;5070235;28;20449;-60
2021/04/14 11:15:31;;;;;;;5.00;1.60;;;10.40;1.00;;;;;;5071701;28;20477;-59
2021/04/14 11:18:05;;;;;;;3.27;1.27;;;10.10;1.00;;;;;;5073062;28;20444;-59
2021/04/14 11:20:46;;;;;;;2.73;1.20;;;10.10;1.00;;;;;;5076089;28;20458;-59
2021/04/14 11:23:17;;;;;;;2.20;1.20;;;10.10;1.00;;;;;;5071896;28;20466;-59
2021/04/14 11:25:43;;;;;;;3.90;1.67;;;10.20;1.00;;;;;;5072803;28;20466;-57
2021/04/14 11:28:12;;;;;;;3.40;1.63;;;10.50;1.00;;;;;;5072645;28;20491;-59
2021/04/14 11:30:54;;;;;;;2.53;1.50;;;10.50;1.00;;;;;;5071324;28;20533;-58
2021/04/14 11:33:32;;;;;;;5.00;1.57;;;10.70;1.00;;;;;;5073205;28;20440;-58
2021/04/14 11:35:58;;;;;;;2.53;1.70;;;10.90;1.00;;;;;;5086858;28;20478;-59
2021/04/14 11:38:40;;;;;;;3.10;1.77;;;11.50;1.00;;;;;;5073225;28;20467;-58
2021/04/14 11:41:21;;;;;;;3.50;1.70;;;11.60;1.00;;;;;;5071353;28;20185;-59
2021/04/14 11:43:47;;;;;;;3.10;2.03;;;11.70;1.00;;;;;;5072595;28;20964;-59
2021/04/14 11:46:57;;;;;;;2.60;1.77;;;11.80;1.00;;;;;;5075048;28;20450;-59
2021/04/14 11:49:38;;;;;;;3.03;1.90;;;12.50;1.00;;;;;;5055716;28;20285;-58
2021/04/14 11:52:28;;;;;;;5.60;1.90;;;12.40;1.00;;;;;;5087512;28;20443;-60
2021/04/14 11:54:57;;;;;;;2.57;1.80;;;11.80;1.00;;;;;;5071678;28;20463;-58
2021/04/14 11:57:24;;;;;;;4.37;1.20;;;11.80;1.00;;;;;;5072302;28;20465;-57
2021/04/14 12:00:21;;;;;;;3.60;1.30;;;11.40;1.00;;;;;;5073804;28;20443;-58
2021/04/14 12:02:50;;;;;;;4.73;1.70;;;11.30;1.00;;;;;;5092460;28;20435;-58
2021/04/14 12:05:16;;;;;;;3.50;1.00;;;11.30;1.00;;;;;;5075620;28;20547;-57
2021/04/14 12:07:43;;;;;;;4.60;1.10;;;11.30;1.00;;;;;;5071855;28;20440;-57
2021/04/14 12:10:09;;;;;;;4.17;1.53;;;11.30;1.00;;;;;;5071174;28;20479;-57
2021/04/14 12:12:35;;;;;;;3.70;1.53;;;11.30;1.00;;;;;;5072070;28;20445;-57
2021/04/14 12:15:01;;;;;;;2.93;1.80;;;11.30;1.00;;;;;;5079211;28;20463;-56
2021/04/14 12:17:27;;;;;;;2.50;1.57;;;11.50;1.00;;;;;;5071900;28;20455;-57
2021/04/14 12:19:53;;;;;;;2.83;1.10;;;11.40;1.00;;;;;;5071485;28;20933;-59
2021/04/14 12:22:19;;;;;;;4.33;1.50;;;11.20;1.00;;;;;;5071417;28;20554;-58
2021/04/14 12:24:45;;;;;;;1.70;1.20;;;11.20;1.00;;;;;;5070127;28;20345;-57
2021/04/14 12:27:12;;;;;;;1.93;1.20;;;11.20;1.00;;;;;;5071597;28;20470;-58
2021/04/14 12:29:39;;;;;;;7.70;2.03;;;11.30;1.00;;;;;;5071480;28;20958;-56
2021/04/14 12:32:05;;;;;;;4.93;1.53;;;11.40;1.00;;;;;;5070951;28;20534;-56
2021/04/14 12:34:30;;;;;;;5.90;1.67;;;11.40;1.00;;;;;;5069212;28;20439;-58
2021/04/14 12:36:57;;;;;;;3.57;1.33;;;11.40;1.00;;;;;;5071042;28;20472;-58
2021/04/14 12:39:23;;;;;;;2.93;1.80;;;11.40;1.00;;;;;;5071060;28;20187;-57
2021/04/14 12:41:49;;;;;;;2.23;1.53;;;11.60;1.00;;;;;;5069683;28;20446;-58
2021/04/14 12:44:15;;;;;;;1.93;1.67;;;11.90;1.00;;;;;;5071002;28;20435;-57
2021/04/14 12:46:43;;;;;;;7.70;2.27;;;11.30;1.00;;;;;;5077043;28;20183;-58
2021/04/14 12:49:12;;;;;;;5.03;1.60;;;10.60;1.00;;;;;;5079828;28;20450;-57
2021/04/14 12:51:45;;;;;;;3.57;1.57;;;10.70;1.00;;;;;;5069816;28;20441;-58
2021/04/14 12:54:13;;;;;;;5.50;1.70;;;10.80;1.00;;;;;;5071699;28;20810;-56
2021/04/14 12:56:43;;;;;;;2.77;1.77;;;10.90;1.00;;;;;;5070404;28;20471;-58
2021/04/14 12:59:14;;;;;;;4.13;1.70;;;10.90;1.00;;;;;;5069649;28;20431;-57
2021/04/14 13:01:40;;;;;;;2.67;1.40;;;11.70;1.00;;;;;;5070215;28;20430;-58
2021/04/14 13:04:14;;;;;;;1.90;1.10;;;11.20;1.00;;;;;;5069195;28;20535;-58
2021/04/14 13:06:45;;;;;;;2.63;1.40;;;11.10;1.00;;;;;;5069742;28;20443;-58
2021/04/14 13:09:11;;;;;;;3.47;1.57;;;10.90;1.00;;;;;;5067460;28;20562;-57
2021/04/14 13:11:44;;;;;;;2.90;1.50;;;10.90;1.00;;;;;;5065680;28;20444;-58
2021/04/14 13:14:10;;;;;;;3.13;1.60;;;10.60;1.00;;;;;;5071975;28;20445;-57
2021/04/14 13:16:58;;;;;;;1.67;1.20;;;8.20;1.00;;;;;;5070644;28;20984;-58
2021/04/14 13:19:27;;;;;;;4.70;1.63;;;10.10;1.00;;;;;;5062106;28;20563;-57
2021/04/14 13:21:56;;;;;;;5.50;1.63;;;10.10;1.00;;;;;;5069915;28;20966;-58